James Island, South Carolina
Current Conditions -  °F | °C
As of 6:15 AM on Wednesday 26 Nov 2014 (Local Time) from KJZI Reporting Station
Light Rain Light Rain  
Wind Chill: 57°   Ceiling: 600
Heat Index: 57°   Visibility: 3mi
Dew Point: 57°   Wind: 14mph
Humidity: 100%   Direction: 310°NW
Pressure: 29.82"   Gusts: 20mph
Location:  32.7248°N, 79.9608°W
Report Text: KJZI 261115Z AUTO 31012G17KT 3SM -RA BKN006 OVC015 14/14 A2982 RMK A02 P000
Loading
Personal Weather Stations






























Interactive Weather Map New forecast layout! Learn more

10-Day Weather Forecast

Advertisements
Track Severe Weather on mobile